Terminal Aerodrome Forecast
Issued by NWS

Home | Current Version | Previous Version | Text Only | Print | Product List | Glossary On
Versions: 1 2 3 4 5 6 7 8 9 10 11 12 13 14 15
581
FTUS44 KLIX 271720
TAFMSY
TAF
KMSY 271720Z 2718/2824 03007KT P6SM SKC
     FM272100 05012KT P6SM VCTS SCT040CB BKN100
     FM280100 01005KT P6SM SCT045 SCT110
     FM280500 35009KT P6SM FEW040 SCT110 PROB30 2810/2812 4SM -SHRA
      OVC025
     FM281700 34012KT P6SM BKN025 BKN040=

USA.gov is the U.S. government's official web portal to all federal, state and local government web resources and services.